SBPV Airport Information

Runway Information
Runway 1 Length 7874 ft width 148 ft
Elevation 0 ft Threshold 0 ft Heading 0
Runway 19 Length 7874 ft Width 148 ft
Elevation 0 ft Threshold 0 ft Heading 0
Airport Frequencies
Type APP Name APP Frequency 119.1 MHZ
Type OPS Name OPS Frequency 122.5 MHZ
Type TWR Name TWR Frequency 118.7 MHZ
Airport Navaids
Type VOR-DME Name Porto Velho Frequency 112700 KHZ
Type NDB Name Porto Velho Frequency 385 KHZ
Airport Weather Information & NOTAM
ADDS - METARS form results

(2239 UTC 20 June 2018)
 
METAR text: SBPV 202200Z 10003KT 9999 FEW030 29/19 Q1013
Conditions at: SBPV (PORTO VELHO(CV/M, BR) observed 2200 UTC 20 June 2018
Temperature: 29.0°C (84°F)
Dewpoint: 19.0°C (66°F) [RH = 55%]
Pressure (altimeter): 29.91 inches Hg (1013.0 mb)
Winds: from the E (100 degrees) at 3 MPH (3 knots; 1.6 m/s)
Visibility: 6 or more miles (10+ km)
Ceiling: at least 12,000 feet AGL
Clouds: few clouds at 3000 feet AGL
Weather: no significant weather observed at this time